sensor_id;sensor_type;location;lat;lon;timestamp;pressure;altitude;pressure_sealevel;temperature;humidity
71976;BME280;68326;52.124;5.424;2023-05-14T00:00:57;102071.03;;;13.48;80.22
71976;BME280;68326;52.124;5.424;2023-05-14T00:03:24;102084.13;;;13.48;80.91
71976;BME280;68326;52.124;5.424;2023-05-14T00:05:50;102080.78;;;13.44;81.47
71976;BME280;68326;52.124;5.424;2023-05-14T00:08:17;102072.19;;;13.40;81.12
71976;BME280;68326;52.124;5.424;2023-05-14T00:10:43;102069.78;;;13.36;81.01
71976;BME280;68326;52.124;5.424;2023-05-14T00:13:10;102066.34;;;13.35;81.05
71976;BME280;68326;52.124;5.424;2023-05-14T00:15:36;102064.50;;;13.37;81.79
71976;BME280;68326;52.124;5.424;2023-05-14T00:18:03;102055.94;;;13.34;81.32
71976;BME280;68326;52.124;5.424;2023-05-14T00:20:29;102056.91;;;13.31;81.70
71976;BME280;68326;52.124;5.424;2023-05-14T00:22:56;102058.91;;;13.24;83.23
71976;BME280;68326;52.124;5.424;2023-05-14T00:25:22;102053.09;;;13.18;82.64
71976;BME280;68326;52.124;5.424;2023-05-14T00:27:49;102056.50;;;13.20;83.20
71976;BME280;68326;52.124;5.424;2023-05-14T00:30:15;102056.50;;;13.20;83.86
71976;BME280;68326;52.124;5.424;2023-05-14T00:32:42;102047.00;;;13.17;83.65
71976;BME280;68326;52.124;5.424;2023-05-14T00:35:08;102048.03;;;13.13;83.06
71976;BME280;68326;52.124;5.424;2023-05-14T00:37:35;102046.28;;;13.14;84.05
71976;BME280;68326;52.124;5.424;2023-05-14T00:40:02;102046.09;;;13.18;82.94
71976;BME280;68326;52.124;5.424;2023-05-14T00:42:29;102040.97;;;13.15;83.71
71976;BME280;68326;52.124;5.424;2023-05-14T00:44:55;102037.56;;;13.13;83.27
71976;BME280;68326;52.124;5.424;2023-05-14T00:47:22;102034.84;;;13.16;83.75
71976;BME280;68326;52.124;5.424;2023-05-14T00:49:48;102037.53;;;13.15;84.01
71976;BME280;68326;52.124;5.424;2023-05-14T00:52:15;102033.44;;;13.09;84.39
71976;BME280;68326;52.124;5.424;2023-05-14T00:54:44;102027.41;;;13.07;83.72
71976;BME280;68326;52.124;5.424;2023-05-14T00:57:12;102025.06;;;13.01;84.14
71976;BME280;68326;52.124;5.424;2023-05-14T00:59:38;102020.72;;;13.00;84.28
71976;BME280;68326;52.124;5.424;2023-05-14T01:02:07;102018.16;;;12.98;84.63
71976;BME280;68326;52.124;5.424;2023-05-14T01:04:33;102019.88;;;12.99;84.88
71976;BME280;68326;52.124;5.424;2023-05-14T01:10:05;102024.25;;;12.99;83.69
71976;BME280;68326;52.124;5.424;2023-05-14T01:15:39;102023.25;;;12.81;85.21
71976;BME280;68326;52.124;5.424;2023-05-14T01:18:09;102020.53;;;12.84;85.59
71976;BME280;68326;52.124;5.424;2023-05-14T01:20:35;102021.50;;;12.81;85.14
71976;BME280;68326;52.124;5.424;2023-05-14T01:23:02;102017.19;;;12.80;86.01
71976;BME280;68326;52.124;5.424;2023-05-14T01:25:29;102019.78;;;12.80;85.24
71976;BME280;68326;52.124;5.424;2023-05-14T01:28:08;102019.78;;;12.80;86.37
71976;BME280;68326;52.124;5.424;2023-05-14T01:30:47;102025.00;;;12.80;85.88
71976;BME280;68326;52.124;5.424;2023-05-14T01:33:15;102017.41;;;12.74;85.51
71976;BME280;68326;52.124;5.424;2023-05-14T01:35:43;102022.69;;;12.73;85.27
71976;BME280;68326;52.124;5.424;2023-05-14T01:38:12;102026.34;;;12.69;86.17
71976;BME280;68326;52.124;5.424;2023-05-14T01:40:40;102021.25;;;12.65;86.29
71976;BME280;68326;52.124;5.424;2023-05-14T01:43:07;102017.00;;;12.63;86.97
71976;BME280;68326;52.124;5.424;2023-05-14T01:45:34;102014.44;;;12.61;86.30
71976;BME280;68326;52.124;5.424;2023-05-14T01:48:02;102014.59;;;12.58;87.00
71976;BME280;68326;52.124;5.424;2023-05-14T01:50:29;102010.25;;;12.57;86.40
71976;BME280;68326;52.124;5.424;2023-05-14T01:52:55;101999.97;;;12.54;87.49
71976;BME280;68326;52.124;5.424;2023-05-14T01:55:22;102001.88;;;12.49;87.28
71976;BME280;68326;52.124;5.424;2023-05-14T01:57:50;102007.00;;;12.52;87.30
71976;BME280;68326;52.124;5.424;2023-05-14T02:00:17;102012.09;;;12.55;86.58
71976;BME280;68326;52.124;5.424;2023-05-14T02:02:43;101997.25;;;12.56;86.62
71976;BME280;68326;52.124;5.424;2023-05-14T02:05:11;102004.38;;;12.52;86.49
71976;BME280;68326;52.124;5.424;2023-05-14T02:07:38;101993.16;;;12.50;87.17
71976;BME280;68326;52.124;5.424;2023-05-14T02:10:04;101989.69;;;12.50;87.27
71976;BME280;68326;52.124;5.424;2023-05-14T02:12:31;101987.00;;;12.51;86.86
71976;BME280;68326;52.124;5.424;2023-05-14T02:14:58;101987.88;;;12.52;87.65
71976;BME280;68326;52.124;5.424;2023-05-14T02:17:25;101975.84;;;12.48;87.45
71976;BME280;68326;52.124;5.424;2023-05-14T02:19:51;101982.91;;;12.46;87.76
71976;BME280;68326;52.124;5.424;2023-05-14T02:22:18;101984.78;;;12.42;86.71
71976;BME280;68326;52.124;5.424;2023-05-14T02:24:44;101989.84;;;12.45;87.37
71976;BME280;68326;52.124;5.424;2023-05-14T02:27:11;101993.59;;;12.39;87.04
71976;BME280;68326;52.124;5.424;2023-05-14T02:29:38;101989.41;;;12.35;87.29
71976;BME280;68326;52.124;5.424;2023-05-14T02:32:05;101988.56;;;12.35;86.88
71976;BME280;68326;52.124;5.424;2023-05-14T02:34:31;101983.44;;;12.32;87.78
71976;BME280;68326;52.124;5.424;2023-05-14T02:36:59;101979.25;;;12.28;87.04
71976;BME280;68326;52.124;5.424;2023-05-14T02:39:26;101981.84;;;12.28;87.84
71976;BME280;68326;52.124;5.424;2023-05-14T02:41:52;101975.59;;;12.32;87.23
71976;BME280;68326;52.124;5.424;2023-05-14T02:44:19;101973.19;;;12.27;87.39
71976;BME280;68326;52.124;5.424;2023-05-14T02:46:46;101982.03;;;12.23;88.38
71976;BME280;68326;52.124;5.424;2023-05-14T02:49:12;101976.03;;;12.21;88.56
71976;BME280;68326;52.124;5.424;2023-05-14T02:51:39;101973.66;;;12.15;88.37
71976;BME280;68326;52.124;5.424;2023-05-14T02:54:05;101968.38;;;12.16;88.12
71976;BME280;68326;52.124;5.424;2023-05-14T02:56:32;101965.88;;;12.13;88.70
71976;BME280;68326;52.124;5.424;2023-05-14T02:58:59;101965.16;;;12.10;89.01
71976;BME280;68326;52.124;5.424;2023-05-14T03:01:26;101968.63;;;12.10;88.94
71976;BME280;68326;52.124;5.424;2023-05-14T03:03:53;101966.94;;;12.09;89.96
71976;BME280;68326;52.124;5.424;2023-05-14T03:06:19;101970.38;;;12.10;90.09
71976;BME280;68326;52.124;5.424;2023-05-14T03:08:45;101970.19;;;12.14;89.20
71976;BME280;68326;52.124;5.424;2023-05-14T03:11:12;101963.41;;;12.10;88.44
71976;BME280;68326;52.124;5.424;2023-05-14T03:13:38;101965.25;;;12.07;88.67
71976;BME280;68326;52.124;5.424;2023-05-14T03:16:05;101964.59;;;12.01;89.18
71976;BME280;68326;52.124;5.424;2023-05-14T03:18:31;101958.53;;;12.01;88.73
71976;BME280;68326;52.124;5.424;2023-05-14T03:20:59;101960.28;;;12.00;90.19
71976;BME280;68326;52.124;5.424;2023-05-14T03:23:26;101975.28;;;11.95;89.78
71976;BME280;68326;52.124;5.424;2023-05-14T03:25:53;101971.91;;;11.92;90.82
71976;BME280;68326;52.124;5.424;2023-05-14T03:28:19;101965.16;;;11.86;89.78
71976;BME280;68326;52.124;5.424;2023-05-14T03:30:45;101963.44;;;11.85;90.46
71976;BME280;68326;52.124;5.424;2023-05-14T03:33:12;101960.78;;;11.88;91.09
71976;BME280;68326;52.124;5.424;2023-05-14T03:35:39;101965.06;;;11.89;89.95
71976;BME280;68326;52.124;5.424;2023-05-14T03:38:05;101968.41;;;11.93;90.67
71976;BME280;68326;52.124;5.424;2023-05-14T03:40:32;101970.31;;;11.88;89.80
71976;BME280;68326;52.124;5.424;2023-05-14T03:42:59;101962.59;;;11.84;89.89
71976;BME280;68326;52.124;5.424;2023-05-14T03:45:25;101967.03;;;11.82;91.64
71976;BME280;68326;52.124;5.424;2023-05-14T03:47:53;101973.13;;;11.81;91.28
71976;BME280;68326;52.124;5.424;2023-05-14T03:50:20;101962.84;;;11.78;90.89
71976;BME280;68326;52.124;5.424;2023-05-14T03:52:47;101966.22;;;11.80;91.46
71976;BME280;68326;52.124;5.424;2023-05-14T03:55:13;101955.81;;;11.80;91.14
71976;BME280;68326;52.124;5.424;2023-05-14T03:57:40;101957.56;;;11.80;90.16
71976;BME280;68326;52.124;5.424;2023-05-14T04:00:07;101959.25;;;11.81;90.62
71976;BME280;68326;52.124;5.424;2023-05-14T04:02:33;101956.66;;;11.81;90.58
71976;BME280;68326;52.124;5.424;2023-05-14T04:05:00;101961.03;;;11.80;91.36
71976;BME280;68326;52.124;5.424;2023-05-14T04:07:26;101953.25;;;11.79;92.10
71976;BME280;68326;52.124;5.424;2023-05-14T04:09:53;101948.91;;;11.79;91.23
71976;BME280;68326;52.124;5.424;2023-05-14T04:12:19;101941.91;;;11.80;91.99
71976;BME280;68326;52.124;5.424;2023-05-14T04:14:46;101947.22;;;11.77;91.72
71976;BME280;68326;52.124;5.424;2023-05-14T04:17:12;101944.53;;;11.80;92.77
71976;BME280;68326;52.124;5.424;2023-05-14T04:19:39;101947.84;;;11.83;91.36
71976;BME280;68326;52.124;5.424;2023-05-14T04:22:05;101951.25;;;11.86;90.95
71976;BME280;68326;52.124;5.424;2023-05-14T04:24:32;101944.31;;;11.86;91.49
71976;BME280;68326;52.124;5.424;2023-05-14T04:26:58;101944.34;;;11.84;91.25
71976;BME280;68326;52.124;5.424;2023-05-14T04:29:25;101941.69;;;11.86;91.39
71976;BME280;68326;52.124;5.424;2023-05-14T04:31:52;101934.75;;;11.85;91.41
71976;BME280;68326;52.124;5.424;2023-05-14T04:34:18;101939.09;;;11.86;92.35
71976;BME280;68326;52.124;5.424;2023-05-14T04:36:45;101950.34;;;11.87;91.61
71976;BME280;68326;52.124;5.424;2023-05-14T04:39:11;101944.31;;;11.86;91.47
71976;BME280;68326;52.124;5.424;2023-05-14T04:41:38;101944.19;;;11.89;92.06
71976;BME280;68326;52.124;5.424;2023-05-14T04:44:04;101945.78;;;11.93;91.96
71976;BME280;68326;52.124;5.424;2023-05-14T04:46:31;101944.91;;;11.94;91.37
71976;BME280;68326;52.124;5.424;2023-05-14T04:48:57;101945.59;;;11.98;91.78
71976;BME280;68326;52.124;5.424;2023-05-14T04:51:24;101940.09;;;12.06;91.27
71976;BME280;68326;52.124;5.424;2023-05-14T04:53:51;101947.88;;;12.07;90.40
71976;BME280;68326;52.124;5.424;2023-05-14T04:56:17;101950.34;;;12.10;90.07
71976;BME280;68326;52.124;5.424;2023-05-14T04:58:44;101951.09;;;12.14;90.91
71976;BME280;68326;52.124;5.424;2023-05-14T05:01:10;101945.78;;;12.15;90.29
71976;BME280;68326;52.124;5.424;2023-05-14T05:03:37;101950.06;;;12.18;91.35
71976;BME280;68326;52.124;5.424;2023-05-14T05:06:04;101953.53;;;12.18;90.58
71976;BME280;68326;52.124;5.424;2023-05-14T05:08:30;101952.59;;;12.19;91.16
71976;BME280;68326;52.124;5.424;2023-05-14T05:10:56;101946.34;;;12.23;91.38
71976;BME280;68326;52.124;5.424;2023-05-14T05:13:23;101958.31;;;12.29;91.11
71976;BME280;68326;52.124;5.424;2023-05-14T05:15:49;101956.44;;;12.33;90.31
71976;BME280;68326;52.124;5.424;2023-05-14T05:18:16;101954.47;;;12.38;89.93
71976;BME280;68326;52.124;5.424;2023-05-14T05:20:42;101955.22;;;12.41;90.61
71976;BME280;68326;52.124;5.424;2023-05-14T05:23:09;101953.44;;;12.42;89.73
71976;BME280;68326;52.124;5.424;2023-05-14T05:25:35;101950.69;;;12.45;90.56
71976;BME280;68326;52.124;5.424;2023-05-14T05:28:02;101949.59;;;12.51;90.26
71976;BME280;68326;52.124;5.424;2023-05-14T05:30:28;101957.38;;;12.52;90.86
71976;BME280;68326;52.124;5.424;2023-05-14T05:32:55;101959.88;;;12.55;90.62
71976;BME280;68326;52.124;5.424;2023-05-14T05:35:23;101963.22;;;12.59;89.92
71976;BME280;68326;52.124;5.424;2023-05-14T05:37:49;101964.78;;;12.63;90.01
71976;BME280;68326;52.124;5.424;2023-05-14T05:40:16;101963.75;;;12.67;89.08
71976;BME280;68326;52.124;5.424;2023-05-14T05:42:42;101959.56;;;12.63;89.90
71976;BME280;68326;52.124;5.424;2023-05-14T05:45:09;101956.94;;;12.63;89.02
71976;BME280;68326;52.124;5.424;2023-05-14T05:47:35;101960.22;;;12.68;90.37
71976;BME280;68326;52.124;5.424;2023-05-14T05:50:02;101965.19;;;12.74;89.42
71976;BME280;68326;52.124;5.424;2023-05-14T05:52:29;101961.00;;;12.70;89.85
71976;BME280;68326;52.124;5.424;2023-05-14T05:54:55;101968.03;;;12.68;90.19
71976;BME280;68326;52.124;5.424;2023-05-14T05:57:22;101969.94;;;12.64;90.45
71976;BME280;68326;52.124;5.424;2023-05-14T05:59:51;101967.50;;;12.60;91.07
71976;BME280;68326;52.124;5.424;2023-05-14T06:02:18;101965.81;;;12.59;90.39
71976;BME280;68326;52.124;5.424;2023-05-14T06:04:45;101968.19;;;12.65;91.60
71976;BME280;68326;52.124;5.424;2023-05-14T06:07:12;101961.00;;;12.70;90.26
71976;BME280;68326;52.124;5.424;2023-05-14T06:09:38;101973.75;;;12.78;90.25
71976;BME280;68326;52.124;5.424;2023-05-14T06:12:05;101971.94;;;12.80;90.12
71976;BME280;68326;52.124;5.424;2023-05-14T06:14:31;101960.88;;;12.73;89.55
71976;BME280;68326;52.124;5.424;2023-05-14T06:16:58;101966.81;;;12.77;90.37
71976;BME280;68326;52.124;5.424;2023-05-14T06:19:24;101986.81;;;12.78;91.44
71976;BME280;68326;52.124;5.424;2023-05-14T06:21:50;101976.31;;;12.79;90.66
71976;BME280;68326;52.124;5.424;2023-05-14T06:24:17;101973.41;;;12.85;90.89
71976;BME280;68326;52.124;5.424;2023-05-14T06:26:45;101975.66;;;12.95;90.36
71976;BME280;68326;52.124;5.424;2023-05-14T06:29:11;101995.38;;;13.02;90.49
71976;BME280;68326;52.124;5.424;2023-05-14T06:31:38;101985.19;;;13.16;90.08
71976;BME280;68326;52.124;5.424;2023-05-14T06:34:04;101991.63;;;13.28;89.08
71976;BME280;68326;52.124;5.424;2023-05-14T06:36:31;101974.34;;;13.25;89.26
71976;BME280;68326;52.124;5.424;2023-05-14T06:38:57;101971.81;;;13.24;89.48
71976;BME280;68326;52.124;5.424;2023-05-14T06:41:24;101969.88;;;13.27;88.73
71976;BME280;68326;52.124;5.424;2023-05-14T06:43:51;101975.59;;;13.37;90.83
71976;BME280;68326;52.124;5.424;2023-05-14T06:46:17;101967.69;;;13.39;88.98
71976;BME280;68326;52.124;5.424;2023-05-14T06:48:44;101981.44;;;13.63;88.78
71976;BME280;68326;52.124;5.424;2023-05-14T06:51:10;101979.34;;;13.90;87.84
71976;BME280;68326;52.124;5.424;2023-05-14T06:53:39;101963.41;;;14.14;85.84
71976;BME280;68326;52.124;5.424;2023-05-14T06:56:05;101967.13;;;14.27;87.58
71976;BME280;68326;52.124;5.424;2023-05-14T06:58:32;101954.53;;;14.35;85.85
71976;BME280;68326;52.124;5.424;2023-05-14T07:00:58;101960.59;;;14.36;86.01
71976;BME280;68326;52.124;5.424;2023-05-14T07:03:25;101962.69;;;14.46;83.70
71976;BME280;68326;52.124;5.424;2023-05-14T07:05:51;101962.63;;;14.48;83.08
71976;BME280;68326;52.124;5.424;2023-05-14T07:08:18;101952.69;;;14.55;84.51
71976;BME280;68326;52.124;5.424;2023-05-14T07:10:44;101957.50;;;14.64;85.46
71976;BME280;68326;52.124;5.424;2023-05-14T07:13:11;101961.59;;;14.70;85.06
71976;BME280;68326;52.124;5.424;2023-05-14T07:15:37;101960.84;;;14.67;84.06
71976;BME280;68326;52.124;5.424;2023-05-14T07:18:03;101971.19;;;14.71;85.38
71976;BME280;68326;52.124;5.424;2023-05-14T07:20:30;101967.84;;;14.84;83.03
71976;BME280;68326;52.124;5.424;2023-05-14T07:22:56;101968.44;;;14.89;83.15
71976;BME280;68326;52.124;5.424;2023-05-14T07:25:23;101966.41;;;14.96;82.92
71976;BME280;68326;52.124;5.424;2023-05-14T07:27:49;101966.28;;;14.98;83.26
71976;BME280;68326;52.124;5.424;2023-05-14T07:30:16;101965.22;;;15.02;82.06
71976;BME280;68326;52.124;5.424;2023-05-14T07:32:42;101960.59;;;15.07;81.80
71976;BME280;68326;52.124;5.424;2023-05-14T07:35:09;101958.09;;;15.21;83.03
71976;BME280;68326;52.124;5.424;2023-05-14T07:37:37;101957.44;;;15.34;81.26
71976;BME280;68326;52.124;5.424;2023-05-14T07:40:04;101958.22;;;15.36;81.82
71976;BME280;68326;52.124;5.424;2023-05-14T07:42:30;101960.59;;;15.40;82.06
71976;BME280;68326;52.124;5.424;2023-05-14T07:45:03;101960.38;;;15.45;82.37
71976;BME280;68326;52.124;5.424;2023-05-14T07:47:29;101954.19;;;15.46;82.94
71976;BME280;68326;52.124;5.424;2023-05-14T07:49:56;101954.00;;;15.49;82.16
71976;BME280;68326;52.124;5.424;2023-05-14T07:52:23;101950.59;;;15.64;83.03
71976;BME280;68326;52.124;5.424;2023-05-14T07:54:50;101952.47;;;15.78;83.39
71976;BME280;68326;52.124;5.424;2023-05-14T07:57:18;101956.31;;;15.88;82.94
71976;BME280;68326;52.124;5.424;2023-05-14T07:59:45;101953.78;;;16.03;82.66
71976;BME280;68326;52.124;5.424;2023-05-14T08:02:11;101951.66;;;16.09;82.79
71976;BME280;68326;52.124;5.424;2023-05-14T08:04:39;101944.75;;;16.23;81.43
71976;BME280;68326;52.124;5.424;2023-05-14T08:07:05;101948.75;;;16.30;80.32
71976;BME280;68326;52.124;5.424;2023-05-14T08:09:33;101951.75;;;16.38;80.18
71976;BME280;68326;52.124;5.424;2023-05-14T08:12:00;101944.41;;;16.29;79.48
71976;BME280;68326;52.124;5.424;2023-05-14T08:14:26;101947.31;;;16.24;80.95
71976;BME280;68326;52.124;5.424;2023-05-14T08:16:53;101947.47;;;16.21;81.64
71976;BME280;68326;52.124;5.424;2023-05-14T08:19:20;101947.81;;;16.31;80.66
71976;BME280;68326;52.124;5.424;2023-05-14T08:21:46;101948.13;;;16.41;80.31
71976;BME280;68326;52.124;5.424;2023-05-14T08:24:13;101952.00;;;16.49;80.29
71976;BME280;68326;52.124;5.424;2023-05-14T08:26:40;101946.97;;;16.61;80.38
71976;BME280;68326;52.124;5.424;2023-05-14T08:29:07;101946.19;;;16.75;79.36
71976;BME280;68326;52.124;5.424;2023-05-14T08:31:36;101952.50;;;16.86;80.19
71976;BME280;68326;52.124;5.424;2023-05-14T08:34:02;101942.88;;;17.01;79.73
71976;BME280;68326;52.124;5.424;2023-05-14T08:36:29;101939.13;;;17.05;78.28
71976;BME280;68326;52.124;5.424;2023-05-14T08:38:55;101931.91;;;17.09;76.85
71976;BME280;68326;52.124;5.424;2023-05-14T08:41:22;101943.16;;;17.11;78.59
71976;BME280;68326;52.124;5.424;2023-05-14T08:46:43;101943.06;;;16.98;78.52
71976;BME280;68326;52.124;5.424;2023-05-14T08:49:32;101935.25;;;17.25;78.85
71976;BME280;68326;52.124;5.424;2023-05-14T08:52:02;101927.94;;;17.45;78.54
71976;BME280;68326;52.124;5.424;2023-05-14T08:54:29;101931.69;;;17.55;78.71
71976;BME280;68326;52.124;5.424;2023-05-14T08:56:57;101925.94;;;17.63;75.49
71976;BME280;68326;52.124;5.424;2023-05-14T08:59:24;101927.75;;;17.62;75.54
71976;BME280;68326;52.124;5.424;2023-05-14T09:01:52;101924.38;;;17.46;76.08
71976;BME280;68326;52.124;5.424;2023-05-14T09:04:21;101929.63;;;17.46;75.73
71976;BME280;68326;52.124;5.424;2023-05-14T09:06:50;101922.47;;;17.48;75.90
71976;BME280;68326;52.124;5.424;2023-05-14T09:09:17;101920.59;;;17.50;75.16
71976;BME280;68326;52.124;5.424;2023-05-14T09:11:51;101913.63;;;17.63;75.88
71976;BME280;68326;52.124;5.424;2023-05-14T09:14:18;101917.75;;;17.67;75.59
71976;BME280;68326;52.124;5.424;2023-05-14T09:16:47;101915.13;;;17.67;74.80
71976;BME280;68326;52.124;5.424;2023-05-14T09:19:14;101918.25;;;17.60;74.23
71976;BME280;68326;52.124;5.424;2023-05-14T09:21:45;101908.34;;;17.63;75.45
71976;BME280;68326;52.124;5.424;2023-05-14T09:24:19;101905.50;;;17.81;75.18
71976;BME280;68326;52.124;5.424;2023-05-14T09:26:49;101899.78;;;17.74;73.82
71976;BME280;68326;52.124;5.424;2023-05-14T09:29:17;101904.38;;;17.85;74.85
71976;BME280;68326;52.124;5.424;2023-05-14T09:31:43;101901.88;;;17.83;73.72
71976;BME280;68326;52.124;5.424;2023-05-14T09:34:10;101900.53;;;17.90;75.66
71976;BME280;68326;52.124;5.424;2023-05-14T09:36:37;101896.78;;;18.07;74.53
71976;BME280;68326;52.124;5.424;2023-05-14T09:39:03;101897.44;;;18.11;75.35
71976;BME280;68326;52.124;5.424;2023-05-14T09:41:30;101895.34;;;18.16;73.95
71976;BME280;68326;52.124;5.424;2023-05-14T09:43:56;101897.06;;;18.17;73.48
71976;BME280;68326;52.124;5.424;2023-05-14T09:46:23;101893.47;;;18.18;73.60
71976;BME280;68326;52.124;5.424;2023-05-14T09:48:54;101883.25;;;18.26;72.52
71976;BME280;68326;52.124;5.424;2023-05-14T09:51:21;101887.47;;;18.29;73.35
71976;BME280;68326;52.124;5.424;2023-05-14T09:53:49;101888.91;;;18.47;73.91
71976;BME280;68326;52.124;5.424;2023-05-14T09:56:17;101889.75;;;18.61;73.99
71976;BME280;68326;52.124;5.424;2023-05-14T09:58:44;101890.91;;;18.69;70.92
71976;BME280;68326;52.124;5.424;2023-05-14T10:01:10;101894.59;;;18.54;72.88
71976;BME280;68326;52.124;5.424;2023-05-14T10:03:38;101885.53;;;18.58;72.46
71976;BME280;68326;52.124;5.424;2023-05-14T10:06:05;101885.31;;;18.74;74.18
71976;BME280;68326;52.124;5.424;2023-05-14T10:08:33;101882.94;;;18.97;72.42
71976;BME280;68326;52.124;5.424;2023-05-14T10:11:02;101880.06;;;19.00;69.73
71976;BME280;68326;52.124;5.424;2023-05-14T10:13:38;101874.19;;;19.09;71.14
71976;BME280;68326;52.124;5.424;2023-05-14T10:16:29;101879.03;;;19.15;70.87
71976;BME280;68326;52.124;5.424;2023-05-14T10:19:03;101878.06;;;19.16;70.87
71976;BME280;68326;52.124;5.424;2023-05-14T10:21:34;101882.25;;;19.31;70.10
71976;BME280;68326;52.124;5.424;2023-05-14T10:24:05;101877.16;;;19.41;71.03
71976;BME280;68326;52.124;5.424;2023-05-14T10:26:34;101873.03;;;19.50;69.92
71976;BME280;68326;52.124;5.424;2023-05-14T10:29:04;101871.22;;;19.50;68.49
71976;BME280;68326;52.124;5.424;2023-05-14T10:31:51;101865.59;;;19.55;68.45
71976;BME280;68326;52.124;5.424;2023-05-14T10:37:00;101868.97;;;19.57;67.56
71976;BME280;68326;52.124;5.424;2023-05-14T10:39:44;101868.22;;;19.81;67.15
71976;BME280;68326;52.124;5.424;2023-05-14T10:42:20;101861.13;;;19.81;65.96
71976;BME280;68326;52.124;5.424;2023-05-14T10:45:04;101862.25;;;19.90;67.52
71976;BME280;68326;52.124;5.424;2023-05-14T10:47:34;101856.59;;;19.94;66.08
71976;BME280;68326;52.124;5.424;2023-05-14T10:50:03;101854.41;;;19.88;66.50
71976;BME280;68326;52.124;5.424;2023-05-14T10:52:31;101847.25;;;20.02;65.37
71976;BME280;68326;52.124;5.424;2023-05-14T10:54:59;101842.78;;;20.15;65.57
71976;BME280;68326;52.124;5.424;2023-05-14T10:57:30;101846.69;;;20.09;64.15
71976;BME280;68326;52.124;5.424;2023-05-14T10:59:59;101845.22;;;19.94;64.76
71976;BME280;68326;52.124;5.424;2023-05-14T11:02:31;101835.38;;;19.96;66.59
71976;BME280;68326;52.124;5.424;2023-05-14T11:05:06;101842.91;;;20.25;66.84
71976;BME280;68326;52.124;5.424;2023-05-14T11:07:40;101831.78;;;20.44;67.06
71976;BME280;68326;52.124;5.424;2023-05-14T11:12:37;101828.84;;;20.60;64.09
71976;BME280;68326;52.124;5.424;2023-05-14T11:15:09;101827.63;;;20.64;64.55
71976;BME280;68326;52.124;5.424;2023-05-14T11:17:38;101826.94;;;20.37;62.17
71976;BME280;68326;52.124;5.424;2023-05-14T11:20:06;101823.19;;;20.17;63.60
71976;BME280;68326;52.124;5.424;2023-05-14T11:22:34;101829.94;;;20.22;65.75
71976;BME280;68326;52.124;5.424;2023-05-14T11:25:00;101825.66;;;20.43;63.70
71976;BME280;68326;52.124;5.424;2023-05-14T11:27:28;101826.31;;;20.58;62.49
71976;BME280;68326;52.124;5.424;2023-05-14T11:29:55;101819.81;;;20.62;62.95
71976;BME280;68326;52.124;5.424;2023-05-14T11:32:23;101821.38;;;20.76;63.80
71976;BME280;68326;52.124;5.424;2023-05-14T11:34:49;101821.63;;;20.84;64.24
71976;BME280;68326;52.124;5.424;2023-05-14T11:37:16;101815.97;;;20.89;62.58
71976;BME280;68326;52.124;5.424;2023-05-14T11:39:53;101807.78;;;21.03;62.99
71976;BME280;68326;52.124;5.424;2023-05-14T11:42:21;101814.28;;;20.99;63.28
71976;BME280;68326;52.124;5.424;2023-05-14T11:44:49;101803.13;;;20.95;63.77
71976;BME280;68326;52.124;5.424;2023-05-14T11:47:19;101802.97;;;20.86;62.60
71976;BME280;68326;52.124;5.424;2023-05-14T11:49:46;101793.19;;;20.52;60.29
71976;BME280;68326;52.124;5.424;2023-05-14T11:52:14;101795.09;;;20.28;61.55
71976;BME280;68326;52.124;5.424;2023-05-14T11:54:42;101800.25;;;20.29;63.67
71976;BME280;68326;52.124;5.424;2023-05-14T11:57:12;101800.50;;;20.26;61.61
71976;BME280;68326;52.124;5.424;2023-05-14T11:59:39;101805.69;;;20.28;64.59
71976;BME280;68326;52.124;5.424;2023-05-14T12:02:14;101791.63;;;20.50;62.71
71976;BME280;68326;52.124;5.424;2023-05-14T12:04:43;101791.66;;;20.61;62.93
71976;BME280;68326;52.124;5.424;2023-05-14T12:07:13;101791.56;;;20.74;62.89
71976;BME280;68326;52.124;5.424;2023-05-14T12:09:44;101789.38;;;20.90;60.93
71976;BME280;68326;52.124;5.424;2023-05-14T12:12:18;101786.72;;;21.02;62.41
71976;BME280;68326;52.124;5.424;2023-05-14T12:14:45;101783.38;;;20.88;59.63
71976;BME280;68326;52.124;5.424;2023-05-14T12:17:21;101786.25;;;20.96;62.43
71976;BME280;68326;52.124;5.424;2023-05-14T12:19:49;101778.94;;;21.00;61.97
71976;BME280;68326;52.124;5.424;2023-05-14T12:22:20;101778.19;;;21.09;61.05
71976;BME280;68326;52.124;5.424;2023-05-14T12:24:54;101784.44;;;20.97;63.51
71976;BME280;68326;52.124;5.424;2023-05-14T12:27:25;101775.94;;;20.93;63.65
71976;BME280;68326;52.124;5.424;2023-05-14T12:30:03;101770.97;;;20.89;63.73
71976;BME280;68326;52.124;5.424;2023-05-14T12:32:34;101771.97;;;20.65;61.14
71976;BME280;68326;52.124;5.424;2023-05-14T12:35:01;101766.81;;;20.64;63.32
71976;BME280;68326;52.124;5.424;2023-05-14T12:37:27;101760.66;;;20.74;62.27
71976;BME280;68326;52.124;5.424;2023-05-14T12:39:56;101763.69;;;20.70;66.03
71976;BME280;68326;52.124;5.424;2023-05-14T12:42:22;101756.22;;;20.75;63.64
71976;BME280;68326;52.124;5.424;2023-05-14T12:44:49;101757.53;;;20.81;65.04
71976;BME280;68326;52.124;5.424;2023-05-14T12:47:15;101754.03;;;20.80;63.22
71976;BME280;68326;52.124;5.424;2023-05-14T12:49:42;101759.09;;;20.61;63.15
71976;BME280;68326;52.124;5.424;2023-05-14T12:52:09;101751.66;;;20.66;63.76
71976;BME280;68326;52.124;5.424;2023-05-14T12:54:38;101755.13;;;20.77;65.67
71976;BME280;68326;52.124;5.424;2023-05-14T12:57:08;101753.31;;;20.89;63.26
71976;BME280;68326;52.124;5.424;2023-05-14T12:59:34;101749.22;;;20.96;63.70
71976;BME280;68326;52.124;5.424;2023-05-14T13:02:01;101741.03;;;20.88;62.75
71976;BME280;68326;52.124;5.424;2023-05-14T13:04:27;101738.66;;;20.74;61.43
71976;BME280;68326;52.124;5.424;2023-05-14T13:06:54;101747.31;;;20.76;65.77